createdAt,value
2019-03-19T00:02:12.734Z,11.87
2019-03-19T00:04:40.265Z,13.63
2019-03-19T00:07:07.719Z,17.87
2019-03-19T00:09:35.215Z,11.10
2019-03-19T00:12:02.768Z,12.77
2019-03-19T00:14:30.243Z,16.80
2019-03-19T00:16:57.692Z,11.60
2019-03-19T00:19:25.123Z,8.63
2019-03-19T00:21:52.495Z,11.40
2019-03-19T00:24:19.982Z,10.27
2019-03-19T00:26:47.574Z,12.83
2019-03-19T00:29:15.170Z,16.13
2019-03-19T00:31:42.458Z,15.00
2019-03-19T00:34:09.911Z,14.00
2019-03-19T00:36:37.340Z,14.47
2019-03-19T00:39:06.137Z,14.03
2019-03-19T00:41:33.642Z,22.20
2019-03-19T00:44:01.059Z,15.70
2019-03-19T00:46:28.431Z,14.20
2019-03-19T00:48:56.202Z,14.20
2019-03-19T00:51:37.513Z,11.27
2019-03-19T00:54:05.003Z,19.20
2019-03-19T00:56:32.525Z,17.23
2019-03-19T00:59:00.331Z,18.90
2019-03-19T01:01:27.883Z,16.40
2019-03-19T01:03:55.526Z,17.87
2019-03-19T01:06:22.927Z,12.60
2019-03-19T01:08:50.404Z,18.27
2019-03-19T01:11:17.947Z,10.53
2019-03-19T01:13:46.301Z,14.50
2019-03-19T01:16:13.711Z,16.70
2019-03-19T01:18:41.379Z,22.10
2019-03-19T01:21:08.836Z,14.27
2019-03-19T01:23:36.344Z,20.77
2019-03-19T01:26:03.789Z,17.33
2019-03-19T01:28:31.067Z,14.40
2019-03-19T01:30:58.590Z,12.73
2019-03-19T01:33:26.023Z,12.60
2019-03-19T01:35:53.378Z,16.93
2019-03-19T01:38:21.019Z,13.80
2019-03-19T01:40:48.579Z,17.53
2019-03-19T01:43:16.163Z,20.70
2019-03-19T01:45:43.542Z,18.13
2019-03-19T01:48:11.004Z,13.30
2019-03-19T01:50:38.284Z,18.90
2019-03-19T01:53:05.686Z,19.90
2019-03-19T01:55:33.099Z,15.37
2019-03-19T01:58:00.555Z,15.43
2019-03-19T02:00:29.082Z,12.90
2019-03-19T02:02:56.418Z,13.70
2019-03-19T02:05:23.820Z,15.23
2019-03-19T02:07:51.488Z,11.77
2019-03-19T02:10:18.845Z,11.60
2019-03-19T02:12:46.643Z,11.97
2019-03-19T02:15:14.221Z,20.17
2019-03-19T02:17:42.215Z,17.67
2019-03-19T02:20:10.816Z,23.63
2019-03-19T02:22:38.342Z,10.70
2019-03-19T02:25:07.001Z,25.63
2019-03-19T02:27:34.522Z,16.70
2019-03-19T02:30:02.013Z,9.03
2019-03-19T02:32:30.091Z,18.37
2019-03-19T02:34:57.560Z,12.47
2019-03-19T02:37:26.007Z,15.47
2019-03-19T02:39:53.489Z,17.97
2019-03-19T02:42:20.940Z,18.43
2019-03-19T02:44:48.394Z,12.27
2019-03-19T02:47:15.871Z,14.40
2019-03-19T02:49:43.429Z,12.13
2019-03-19T02:52:10.947Z,14.50
2019-03-19T02:54:38.623Z,26.33
2019-03-19T02:57:06.313Z,18.93
2019-03-19T02:59:33.765Z,8.37
2019-03-19T03:02:01.499Z,14.53
2019-03-19T03:04:28.898Z,8.57
2019-03-19T03:06:56.465Z,17.07
2019-03-19T03:09:23.868Z,10.50
2019-03-19T03:11:51.382Z,14.73
2019-03-19T03:14:18.782Z,12.03
2019-03-19T03:16:46.595Z,11.43
2019-03-19T03:19:14.036Z,11.23
2019-03-19T03:21:41.930Z,8.30
2019-03-19T03:24:09.387Z,6.90
2019-03-19T03:26:47.747Z,13.47
2019-03-19T03:29:06.243Z,12.80
2019-03-19T03:31:33.646Z,14.57
2019-03-19T03:34:01.126Z,15.60
2019-03-19T03:36:28.772Z,12.30
2019-03-19T03:38:56.215Z,7.87
2019-03-19T03:41:23.897Z,17.00
2019-03-19T03:43:51.409Z,11.33
2019-03-19T03:46:18.735Z,10.50
2019-03-19T03:48:46.221Z,13.57
2019-03-19T03:51:13.608Z,14.20
2019-03-19T03:53:41.256Z,10.10
2019-03-19T03:56:08.745Z,10.73
2019-03-19T03:58:36.221Z,13.07
2019-03-19T04:01:03.642Z,19.50
2019-03-19T04:03:31.115Z,12.37
2019-03-19T04:05:58.709Z,13.70
2019-03-19T04:08:26.279Z,17.70
2019-03-19T04:10:53.808Z,11.93
2019-03-19T04:13:21.465Z,14.47
2019-03-19T04:15:48.939Z,12.00
2019-03-19T04:18:16.338Z,21.60
2019-03-19T04:20:43.843Z,13.13
2019-03-19T04:23:11.327Z,12.03
2019-03-19T04:25:38.810Z,12.50
2019-03-19T04:28:06.543Z,13.37
2019-03-19T04:30:34.075Z,20.07
2019-03-19T04:33:01.511Z,11.87
2019-03-19T04:35:29.114Z,10.13
2019-03-19T04:37:56.640Z,15.70
2019-03-19T04:40:24.142Z,14.50
2019-03-19T04:42:51.681Z,10.80
2019-03-19T04:45:19.593Z,16.75
2019-03-19T04:47:47.018Z,22.50
2019-03-19T04:50:14.812Z,17.98
2019-03-19T04:52:42.200Z,15.30
2019-03-19T04:55:09.724Z,14.07
2019-03-19T04:57:38.219Z,15.17
2019-03-19T05:00:05.792Z,14.37
2019-03-19T05:02:33.455Z,9.03
2019-03-19T05:05:02.814Z,17.77
2019-03-19T05:07:30.668Z,17.47
2019-03-19T05:09:58.158Z,17.93
2019-03-19T05:12:25.532Z,13.20
2019-03-19T05:14:52.992Z,10.90
2019-03-19T05:17:20.511Z,10.33
2019-03-19T05:19:48.990Z,17.77
2019-03-19T05:22:16.507Z,19.00
2019-03-19T05:24:44.098Z,16.53
2019-03-19T05:27:13.894Z,14.67
2019-03-19T05:29:41.294Z,14.00
2019-03-19T05:32:08.715Z,14.93
2019-03-19T05:34:36.208Z,15.83
2019-03-19T05:37:03.714Z,13.17
2019-03-19T05:39:31.312Z,14.63
2019-03-19T05:41:58.796Z,12.30
2019-03-19T05:44:26.266Z,16.47
2019-03-19T05:46:53.745Z,15.67
2019-03-19T05:49:21.368Z,12.97
2019-03-19T05:51:48.930Z,16.33
2019-03-19T05:54:16.318Z,11.47
2019-03-19T05:56:43.821Z,10.87
2019-03-19T05:59:11.339Z,13.03
2019-03-19T06:01:38.928Z,15.80
2019-03-19T06:04:06.458Z,13.67
2019-03-19T06:06:34.116Z,14.60
2019-03-19T06:09:01.819Z,9.37
2019-03-19T06:11:30.691Z,8.70
2019-03-19T06:13:58.310Z,19.60
2019-03-19T06:16:25.823Z,18.27
2019-03-19T06:18:53.242Z,13.83
2019-03-19T06:21:20.892Z,12.07
2019-03-19T06:23:48.412Z,12.20
2019-03-19T06:26:16.241Z,9.97
2019-03-19T06:28:56.011Z,15.70
2019-03-19T06:31:23.661Z,12.17
2019-03-19T06:33:51.209Z,13.33
2019-03-19T06:36:18.723Z,13.27
2019-03-19T06:38:46.552Z,13.00
2019-03-19T06:41:14.125Z,14.60
2019-03-19T06:43:42.044Z,8.93
2019-03-19T06:46:09.558Z,13.33
2019-03-19T06:48:36.874Z,10.27
2019-03-19T06:51:04.465Z,12.50
2019-03-19T06:53:31.790Z,11.90
2019-03-19T06:55:59.093Z,11.83
2019-03-19T06:58:26.383Z,9.47
2019-03-19T07:00:53.752Z,11.17
2019-03-19T07:03:21.337Z,10.03
2019-03-19T07:05:48.761Z,16.23
2019-03-19T07:08:16.118Z,12.00
2019-03-19T07:10:43.765Z,13.50
2019-03-19T07:13:11.172Z,13.80
2019-03-19T07:15:38.674Z,8.77
2019-03-19T07:18:06.249Z,8.87
2019-03-19T07:20:33.650Z,8.90
2019-03-19T07:23:01.485Z,11.50
2019-03-19T07:25:29.037Z,9.23
2019-03-19T07:27:56.429Z,10.80
2019-03-19T07:30:23.883Z,13.50
2019-03-19T07:32:51.366Z,17.53
2019-03-19T07:35:18.781Z,16.63
2019-03-19T07:37:46.416Z,13.23
2019-03-19T07:40:13.863Z,16.60
2019-03-19T07:42:42.174Z,10.23
2019-03-19T07:45:12.165Z,13.37
2019-03-19T07:47:39.669Z,14.13
2019-03-19T07:50:08.703Z,8.40
2019-03-19T07:52:36.199Z,6.97
2019-03-19T07:55:04.049Z,12.03
2019-03-19T07:57:31.729Z,12.13
2019-03-19T07:59:59.166Z,15.23
2019-03-19T08:02:26.563Z,10.37
2019-03-19T08:04:54.083Z,10.70
2019-03-19T08:07:21.783Z,11.40
2019-03-19T08:09:49.202Z,7.97
2019-03-19T08:12:16.611Z,6.67
2019-03-19T08:14:44.352Z,8.10
2019-03-19T08:17:11.969Z,9.90
2019-03-19T08:19:39.970Z,9.57
2019-03-19T08:22:07.446Z,9.13
2019-03-19T08:24:34.840Z,10.13
2019-03-19T08:27:02.267Z,10.97
2019-03-19T08:29:29.863Z,8.77
2019-03-19T08:31:57.430Z,8.33
2019-03-19T08:34:25.087Z,8.93
2019-03-19T08:36:52.856Z,12.87
2019-03-19T08:39:20.740Z,7.93
2019-03-19T08:41:48.355Z,10.23
2019-03-19T08:44:15.941Z,9.97
2019-03-19T08:46:43.708Z,8.90
2019-03-19T08:49:11.245Z,14.40
2019-03-19T08:51:38.980Z,10.00
2019-03-19T08:54:06.873Z,7.37
2019-03-19T08:56:35.357Z,9.10
2019-03-19T08:59:06.040Z,8.80
2019-03-19T09:01:31.962Z,11.40
2019-03-19T09:03:59.467Z,7.47
2019-03-19T09:06:27.152Z,12.93
2019-03-19T09:08:54.594Z,7.33
2019-03-19T09:11:22.146Z,8.37
2019-03-19T09:13:49.697Z,9.73
2019-03-19T09:16:17.212Z,9.73
2019-03-19T09:18:45.037Z,9.53
2019-03-19T09:21:12.688Z,10.10
2019-03-19T09:23:40.613Z,9.43
2019-03-19T09:26:08.142Z,9.60
2019-03-19T09:28:35.444Z,7.70
2019-03-19T09:31:02.974Z,8.10
2019-03-19T09:33:30.510Z,7.90
2019-03-19T09:35:57.948Z,8.23
2019-03-19T09:38:25.426Z,12.47
2019-03-19T09:40:52.825Z,5.00
2019-03-19T09:43:20.375Z,8.63
2019-03-19T09:45:47.801Z,7.20
2019-03-19T09:48:15.305Z,7.87
2019-03-19T09:50:42.682Z,3.60
2019-03-19T09:53:10.206Z,7.83
2019-03-19T09:55:37.674Z,9.40
2019-03-19T09:58:05.402Z,7.00
2019-03-19T10:00:33.021Z,8.70
2019-03-19T10:03:00.887Z,11.20
2019-03-19T10:05:28.401Z,7.13
2019-03-19T10:07:55.964Z,7.50
2019-03-19T10:10:23.445Z,7.23
2019-03-19T10:12:50.919Z,10.30
2019-03-19T10:15:18.266Z,5.80
2019-03-19T10:17:45.852Z,7.73
2019-03-19T10:20:13.551Z,7.90
2019-03-19T10:22:41.227Z,7.57
2019-03-19T10:25:09.536Z,11.03
2019-03-19T10:27:37.122Z,8.53
2019-03-19T10:30:09.779Z,8.73
2019-03-19T10:32:37.376Z,7.20
2019-03-19T10:35:04.902Z,10.57
2019-03-19T10:37:32.323Z,10.73
2019-03-19T10:39:59.882Z,8.27
2019-03-19T10:42:27.479Z,5.37
2019-03-19T10:44:55.057Z,8.87
2019-03-19T10:47:22.503Z,8.20
2019-03-19T10:49:49.914Z,5.43
2019-03-19T10:52:17.393Z,4.57
2019-03-19T10:54:44.934Z,6.00
2019-03-19T10:57:12.334Z,3.60
2019-03-19T10:59:48.749Z,4.57
2019-03-19T11:02:09.112Z,4.00
2019-03-19T11:04:36.480Z,6.13
2019-03-19T11:07:03.859Z,6.73
2019-03-19T11:09:31.264Z,4.95
2019-03-19T11:11:58.701Z,5.40
2019-03-19T11:14:26.190Z,6.30
2019-03-19T11:16:53.697Z,5.67
2019-03-19T11:19:21.173Z,4.40
2019-03-19T11:21:48.710Z,7.17
2019-03-19T11:24:16.230Z,4.33
2019-03-19T11:26:43.626Z,4.47
2019-03-19T11:29:11.259Z,5.57
2019-03-19T11:31:38.622Z,3.07
2019-03-19T11:34:07.639Z,2.40
2019-03-19T11:36:35.247Z,3.20
2019-03-19T11:39:06.417Z,7.90
2019-03-19T11:41:33.944Z,3.60
2019-03-19T11:44:01.340Z,3.97
2019-03-19T11:46:28.971Z,4.40
2019-03-19T11:48:56.478Z,5.80
2019-03-19T11:51:24.127Z,5.40
2019-03-19T11:53:51.750Z,3.87
2019-03-19T11:56:19.282Z,4.43
2019-03-19T11:58:46.848Z,5.73
2019-03-19T12:01:14.380Z,3.37
2019-03-19T12:03:41.830Z,3.33
2019-03-19T12:06:10.367Z,5.37
2019-03-19T12:08:37.771Z,6.20
2019-03-19T12:11:05.365Z,4.75
2019-03-19T12:13:32.980Z,6.17
2019-03-19T12:16:00.638Z,6.37
2019-03-19T12:18:28.097Z,5.10
2019-03-19T12:20:55.622Z,5.17
2019-03-19T12:23:23.170Z,8.63
2019-03-19T12:25:50.642Z,9.13
2019-03-19T12:28:18.101Z,6.50
2019-03-19T12:30:46.655Z,5.97
2019-03-19T12:33:14.175Z,5.40
2019-03-19T12:35:41.692Z,4.37
2019-03-19T12:38:09.297Z,7.20
2019-03-19T12:40:37.549Z,7.70
2019-03-19T12:43:05.155Z,5.40
2019-03-19T12:45:32.732Z,10.70
2019-03-19T12:48:00.566Z,3.30
2019-03-19T12:50:28.131Z,5.87
2019-03-19T12:52:55.530Z,6.77
2019-03-19T12:55:22.996Z,8.23
2019-03-19T12:57:50.383Z,3.60
2019-03-19T13:00:18.913Z,4.90
2019-03-19T13:02:46.354Z,2.90
2019-03-19T13:05:13.627Z,3.63
2019-03-19T13:07:41.044Z,7.78
2019-03-19T13:10:11.262Z,4.73
2019-03-19T13:12:39.141Z,5.33
2019-03-19T13:15:07.253Z,6.60
2019-03-19T13:17:34.809Z,5.67
2019-03-19T13:20:02.299Z,8.70
2019-03-19T13:22:29.810Z,5.40
2019-03-19T13:24:57.318Z,3.43
2019-03-19T13:27:24.800Z,4.90
2019-03-19T13:29:52.238Z,10.23
2019-03-19T13:32:19.810Z,8.57
2019-03-19T13:34:47.306Z,2.93
2019-03-19T13:37:14.729Z,3.13
2019-03-19T13:39:42.069Z,3.60
2019-03-19T13:42:10.115Z,6.63
2019-03-19T13:44:37.718Z,3.40
2019-03-19T13:47:05.086Z,3.90
2019-03-19T13:49:32.727Z,4.03
2019-03-19T13:52:00.459Z,4.10
2019-03-19T13:54:27.920Z,7.60
2019-03-19T13:56:55.262Z,6.00
2019-03-19T13:59:22.755Z,4.77
2019-03-19T14:01:50.250Z,5.65
2019-03-19T14:04:17.806Z,2.90
2019-03-19T14:06:45.312Z,4.20
2019-03-19T14:09:12.703Z,4.93
2019-03-19T14:11:40.397Z,5.73
2019-03-19T14:14:08.004Z,13.27
2019-03-19T14:16:35.743Z,5.57
2019-03-19T14:19:04.000Z,4.40
2019-03-19T14:21:31.454Z,8.30
2019-03-19T14:24:00.030Z,8.67
2019-03-19T14:26:27.691Z,10.30
2019-03-19T14:28:55.283Z,4.53
2019-03-19T14:31:22.845Z,5.90
2019-03-19T14:33:50.227Z,4.83
2019-03-19T14:36:17.659Z,4.53
2019-03-19T14:38:47.327Z,4.63
2019-03-19T14:41:14.795Z,3.50
2019-03-19T14:43:43.513Z,5.10
2019-03-19T14:46:11.142Z,4.80
2019-03-19T14:48:38.797Z,10.90
2019-03-19T14:51:06.211Z,8.48
2019-03-19T14:53:33.777Z,5.67
2019-03-19T14:56:01.337Z,11.33
2019-03-19T14:58:28.774Z,6.07
2019-03-19T15:00:56.245Z,6.03
2019-03-19T15:03:23.724Z,6.70
2019-03-19T15:05:51.138Z,7.60
2019-03-19T15:08:18.565Z,4.37
2019-03-19T15:10:46.126Z,3.53
2019-03-19T15:13:13.704Z,6.30
2019-03-19T15:15:41.221Z,6.93
2019-03-19T15:18:08.835Z,9.53
2019-03-19T15:20:36.307Z,7.80
2019-03-19T15:23:04.522Z,9.37
2019-03-19T15:25:32.427Z,6.60
2019-03-19T15:27:59.897Z,7.00
2019-03-19T15:30:27.524Z,7.30
2019-03-19T15:32:54.902Z,5.20
2019-03-19T15:35:22.292Z,6.30
2019-03-19T15:37:49.704Z,3.67
2019-03-19T15:40:17.083Z,6.42
2019-03-19T15:42:44.832Z,4.83
2019-03-19T15:45:12.542Z,5.10
2019-03-19T15:47:40.252Z,6.60
2019-03-19T15:50:09.994Z,4.80
2019-03-19T15:52:37.298Z,4.57
2019-03-19T15:55:05.210Z,9.80
2019-03-19T15:57:32.666Z,3.10
2019-03-19T15:59:59.995Z,5.60
2019-03-19T16:02:27.446Z,6.47
2019-03-19T16:04:55.297Z,3.17
2019-03-19T16:07:22.977Z,8.23
2019-03-19T16:09:50.679Z,9.13
2019-03-19T16:12:18.090Z,8.43
2019-03-19T16:14:45.563Z,3.13
2019-03-19T16:17:13.510Z,6.10
2019-03-19T16:19:41.020Z,6.00
2019-03-19T16:22:08.654Z,4.60
2019-03-19T16:24:36.219Z,5.73
2019-03-19T16:27:04.283Z,6.63
2019-03-19T16:29:32.034Z,5.37
2019-03-19T16:32:00.771Z,6.12
2019-03-19T16:34:28.458Z,4.40
2019-03-19T16:36:55.869Z,2.33
2019-03-19T16:39:23.358Z,4.60
2019-03-19T16:41:50.890Z,4.23
2019-03-19T16:44:18.449Z,14.87
2019-03-19T16:46:47.458Z,4.37
2019-03-19T16:49:14.839Z,4.33
2019-03-19T16:51:42.206Z,4.50
2019-03-19T16:54:09.669Z,5.80
2019-03-19T16:56:37.807Z,8.13
2019-03-19T16:59:06.918Z,4.20
2019-03-19T17:01:34.450Z,6.40
2019-03-19T17:04:01.990Z,3.13
2019-03-19T17:06:29.429Z,5.03
2019-03-19T17:08:56.954Z,4.80
2019-03-19T17:11:24.470Z,4.00
2019-03-19T17:13:51.959Z,3.00
2019-03-19T17:16:19.489Z,10.10
2019-03-19T17:18:47.091Z,7.03
2019-03-19T17:21:14.816Z,6.65
2019-03-19T17:23:42.369Z,7.80
2019-03-19T17:26:09.810Z,6.50
2019-03-19T17:28:37.572Z,6.80
2019-03-19T17:31:05.406Z,8.17
2019-03-19T17:33:32.922Z,6.70
2019-03-19T17:36:00.411Z,4.00
2019-03-19T17:38:28.001Z,5.47
2019-03-19T17:40:55.530Z,4.50
2019-03-19T17:43:22.894Z,9.43
2019-03-19T17:45:50.680Z,9.27
2019-03-19T17:48:18.469Z,10.23
2019-03-19T17:50:47.007Z,5.90
2019-03-19T17:53:14.475Z,5.50
2019-03-19T17:55:42.036Z,7.03
2019-03-19T17:58:09.655Z,7.10
2019-03-19T18:00:39.938Z,11.57
2019-03-19T18:03:07.445Z,14.40
2019-03-19T18:05:35.726Z,11.47
2019-03-19T18:08:03.570Z,13.87
2019-03-19T18:10:31.453Z,12.45
2019-03-19T18:12:58.968Z,15.07
2019-03-19T18:15:26.658Z,8.87
2019-03-19T18:17:54.273Z,10.10
2019-03-19T18:20:25.635Z,13.60
2019-03-19T18:22:53.440Z,12.50
2019-03-19T18:25:21.011Z,11.83
2019-03-19T18:27:49.509Z,9.93
2019-03-19T18:30:17.112Z,9.03
2019-03-19T18:32:44.850Z,11.70
2019-03-19T18:35:12.488Z,10.63
2019-03-19T18:37:40.085Z,10.30
2019-03-19T18:40:07.687Z,10.10
2019-03-19T18:42:35.185Z,11.27
2019-03-19T18:45:03.033Z,13.90
2019-03-19T18:47:31.329Z,10.63
2019-03-19T18:49:59.010Z,10.90
2019-03-19T18:52:26.663Z,9.20
2019-03-19T18:54:54.130Z,11.17
2019-03-19T18:57:21.568Z,9.53
2019-03-19T18:59:49.198Z,11.90
2019-03-19T19:02:16.491Z,11.80
2019-03-19T19:04:44.234Z,18.03
2019-03-19T19:07:11.808Z,9.27
2019-03-19T19:09:39.615Z,13.27
2019-03-19T19:12:06.800Z,12.60
2019-03-19T19:14:34.174Z,14.20
2019-03-19T19:17:01.619Z,16.80
2019-03-19T19:19:29.081Z,13.90
2019-03-19T19:21:56.549Z,11.07
2019-03-19T19:24:24.105Z,10.37
2019-03-19T19:26:51.502Z,12.43
2019-03-19T19:29:19.122Z,12.30
2019-03-19T19:31:46.798Z,12.60
2019-03-19T19:34:14.630Z,18.77
2019-03-19T19:36:42.194Z,14.73
2019-03-19T19:39:09.992Z,12.37
2019-03-19T19:41:37.542Z,12.10
2019-03-19T19:44:05.151Z,12.27
2019-03-19T19:46:32.799Z,11.77
2019-03-19T19:49:00.601Z,12.90
2019-03-19T19:51:29.471Z,9.43
2019-03-19T19:53:57.049Z,11.77
2019-03-19T19:56:24.517Z,13.70
2019-03-19T19:58:52.014Z,12.83
2019-03-19T20:01:19.360Z,13.63
2019-03-19T20:03:46.826Z,12.07
2019-03-19T20:06:14.334Z,11.53
2019-03-19T20:08:41.978Z,16.13
2019-03-19T20:11:09.747Z,13.20
2019-03-19T20:13:37.373Z,12.50
2019-03-19T20:16:04.890Z,14.43
2019-03-19T20:18:32.288Z,11.67
2019-03-19T20:20:59.761Z,14.37
2019-03-19T20:23:27.198Z,13.33
2019-03-19T20:25:54.583Z,23.73
2019-03-19T20:28:22.265Z,14.50
2019-03-19T20:30:49.679Z,21.20
2019-03-19T20:33:24.736Z,16.85
2019-03-19T20:35:47.365Z,13.40
2019-03-19T20:38:15.010Z,23.20
2019-03-19T20:40:42.422Z,20.00
2019-03-19T20:43:10.282Z,22.60
2019-03-19T20:45:37.843Z,17.57
2019-03-19T20:48:05.692Z,18.00
2019-03-19T20:50:33.697Z,20.03
2019-03-19T20:53:01.245Z,20.57
2019-03-19T20:55:28.819Z,21.87
2019-03-19T20:57:56.337Z,18.53
2019-03-19T21:00:23.806Z,20.43
2019-03-19T21:02:51.338Z,18.83
2019-03-19T21:05:18.953Z,20.17
2019-03-19T21:07:46.382Z,20.30
2019-03-19T21:10:15.647Z,20.13
2019-03-19T21:12:46.085Z,15.10
2019-03-19T21:15:20.602Z,22.50
2019-03-19T21:17:49.270Z,15.63
2019-03-19T21:20:16.843Z,16.97
2019-03-19T21:22:44.673Z,15.20
2019-03-19T21:25:13.386Z,13.77
2019-03-19T21:27:41.099Z,14.90
2019-03-19T21:30:08.914Z,19.90
2019-03-19T21:32:37.655Z,14.27
2019-03-19T21:35:05.967Z,18.33
2019-03-19T21:37:33.632Z,15.73
2019-03-19T21:40:01.111Z,14.47
2019-03-19T21:42:28.781Z,15.93
2019-03-19T21:44:56.362Z,11.10
2019-03-19T21:47:24.105Z,14.07
2019-03-19T21:49:51.709Z,12.47
2019-03-19T21:52:19.244Z,14.03
2019-03-19T21:54:48.044Z,10.90
2019-03-19T21:57:15.912Z,11.87
2019-03-19T21:59:46.418Z,10.10
2019-03-19T22:02:15.329Z,7.03
2019-03-19T22:04:43.819Z,9.70
2019-03-19T22:07:12.340Z,8.67
2019-03-19T22:09:40.410Z,7.53
2019-03-19T22:12:08.042Z,9.03
2019-03-19T22:14:35.719Z,8.03
2019-03-19T22:17:03.108Z,8.80
2019-03-19T22:19:30.619Z,9.43
2019-03-19T22:21:58.197Z,6.97
2019-03-19T22:24:25.657Z,8.93
2019-03-19T22:26:53.292Z,6.30
2019-03-19T22:29:20.684Z,6.43
2019-03-19T22:31:48.519Z,5.97
2019-03-19T22:34:16.102Z,8.53
2019-03-19T22:36:45.272Z,10.43
2019-03-19T22:39:12.909Z,10.33
2019-03-19T22:41:41.362Z,11.70
2019-03-19T22:44:08.788Z,5.10
2019-03-19T22:46:36.265Z,4.50
2019-03-19T22:49:03.939Z,7.60
2019-03-19T22:51:31.420Z,5.57
2019-03-19T22:53:59.042Z,6.73
2019-03-19T22:56:26.418Z,11.00
2019-03-19T22:58:53.898Z,6.33
2019-03-19T23:01:21.564Z,6.13
2019-03-19T23:03:49.162Z,11.03
2019-03-19T23:06:16.455Z,12.07
2019-03-19T23:09:39.739Z,7.70
2019-03-19T23:12:25.868Z,7.83
2019-03-19T23:14:53.382Z,6.90
2019-03-19T23:17:21.061Z,7.47
2019-03-19T23:19:48.619Z,7.43
2019-03-19T23:22:16.131Z,10.20
2019-03-19T23:24:45.758Z,9.53
2019-03-19T23:27:13.234Z,6.73
2019-03-19T23:29:40.768Z,8.87
2019-03-19T23:32:08.411Z,6.93
2019-03-19T23:34:38.684Z,22.40
2019-03-19T23:37:05.950Z,6.67
2019-03-19T23:39:33.450Z,8.20
2019-03-19T23:42:00.962Z,6.93
2019-03-19T23:44:28.585Z,13.23
2019-03-19T23:46:57.648Z,8.53
2019-03-19T23:49:28.583Z,11.60
2019-03-19T23:51:56.046Z,5.73
2019-03-19T23:54:23.430Z,8.83
2019-03-19T23:56:50.891Z,8.60
2019-03-19T23:59:18.222Z,12.97
